sensor_id;sensor_type;location;lat;lon;timestamp;temperature;humidity
20998;DHT22;10657;51.276;6.390;2024-02-26T00:00:31;8.70;99.90
20998;DHT22;10657;51.276;6.390;2024-02-26T00:02:58;8.70;99.90
20998;DHT22;10657;51.276;6.390;2024-02-26T00:05:25;8.60;99.90
20998;DHT22;10657;51.276;6.390;2024-02-26T00:07:52;8.60;99.90
20998;DHT22;10657;51.276;6.390;2024-02-26T00:10:18;8.70;99.90
20998;DHT22;10657;51.276;6.390;2024-02-26T00:12:45;8.70;99.90
20998;DHT22;10657;51.276;6.390;2024-02-26T00:15:12;8.60;99.90
20998;DHT22;10657;51.276;6.390;2024-02-26T00:17:39;8.70;99.90
20998;DHT22;10657;51.276;6.390;2024-02-26T00:20:06;8.60;99.90
20998;DHT22;10657;51.276;6.390;2024-02-26T00:22:36;8.50;99.90
20998;DHT22;10657;51.276;6.390;2024-02-26T00:25:04;8.60;99.90
20998;DHT22;10657;51.276;6.390;2024-02-26T00:27:31;8.40;99.90
20998;DHT22;10657;51.276;6.390;2024-02-26T00:29:57;8.40;99.90
20998;DHT22;10657;51.276;6.390;2024-02-26T00:32:24;8.10;99.90
20998;DHT22;10657;51.276;6.390;2024-02-26T00:34:51;8.30;99.90
20998;DHT22;10657;51.276;6.390;2024-02-26T00:37:19;8.40;99.90
20998;DHT22;10657;51.276;6.390;2024-02-26T00:39:45;8.60;99.90
20998;DHT22;10657;51.276;6.390;2024-02-26T00:42:13;8.70;99.90
20998;DHT22;10657;51.276;6.390;2024-02-26T00:44:39;8.60;99.90
20998;DHT22;10657;51.276;6.390;2024-02-26T00:47:06;8.60;99.90
20998;DHT22;10657;51.276;6.390;2024-02-26T00:49:33;8.60;99.90
20998;DHT22;10657;51.276;6.390;2024-02-26T00:51:59;8.70;99.90
20998;DHT22;10657;51.276;6.390;2024-02-26T00:54:26;8.70;99.90
20998;DHT22;10657;51.276;6.390;2024-02-26T00:56:53;8.70;99.90
20998;DHT22;10657;51.276;6.390;2024-02-26T00:59:19;8.60;99.90
20998;DHT22;10657;51.276;6.390;2024-02-26T01:01:46;8.50;99.90
20998;DHT22;10657;51.276;6.390;2024-02-26T01:04:13;8.60;99.90
20998;DHT22;10657;51.276;6.390;2024-02-26T01:06:39;8.70;99.90
20998;DHT22;10657;51.276;6.390;2024-02-26T01:09:07;8.70;99.90
20998;DHT22;10657;51.276;6.390;2024-02-26T01:11:35;8.70;99.90
20998;DHT22;10657;51.276;6.390;2024-02-26T01:14:02;8.60;99.90
20998;DHT22;10657;51.276;6.390;2024-02-26T01:16:30;8.60;99.90
20998;DHT22;10657;51.276;6.390;2024-02-26T01:18:58;8.60;99.90
20998;DHT22;10657;51.276;6.390;2024-02-26T01:21:25;8.60;99.90
20998;DHT22;10657;51.276;6.390;2024-02-26T01:23:53;8.60;99.90
20998;DHT22;10657;51.276;6.390;2024-02-26T01:26:20;8.50;99.90
20998;DHT22;10657;51.276;6.390;2024-02-26T01:28:48;8.70;99.90
20998;DHT22;10657;51.276;6.390;2024-02-26T01:31:15;8.70;99.90
20998;DHT22;10657;51.276;6.390;2024-02-26T01:33:41;8.60;99.90
20998;DHT22;10657;51.276;6.390;2024-02-26T01:36:08;8.60;99.90
20998;DHT22;10657;51.276;6.390;2024-02-26T01:38:35;8.30;99.90
20998;DHT22;10657;51.276;6.390;2024-02-26T01:41:02;8.30;99.90
20998;DHT22;10657;51.276;6.390;2024-02-26T01:43:28;8.40;99.90
20998;DHT22;10657;51.276;6.390;2024-02-26T01:45:55;8.50;99.90
20998;DHT22;10657;51.276;6.390;2024-02-26T01:48:22;8.50;99.90
20998;DHT22;10657;51.276;6.390;2024-02-26T01:50:49;8.60;99.90
20998;DHT22;10657;51.276;6.390;2024-02-26T01:53:16;8.60;99.90
20998;DHT22;10657;51.276;6.390;2024-02-26T01:55:43;8.70;99.90
20998;DHT22;10657;51.276;6.390;2024-02-26T01:58:11;8.60;99.90
20998;DHT22;10657;51.276;6.390;2024-02-26T02:00:38;8.40;99.90
20998;DHT22;10657;51.276;6.390;2024-02-26T02:03:06;8.20;99.90
20998;DHT22;10657;51.276;6.390;2024-02-26T02:05:33;8.10;99.90
20998;DHT22;10657;51.276;6.390;2024-02-26T02:08:00;8.10;99.90
20998;DHT22;10657;51.276;6.390;2024-02-26T02:10:27;8.40;99.90
20998;DHT22;10657;51.276;6.390;2024-02-26T02:12:54;8.80;99.90
20998;DHT22;10657;51.276;6.390;2024-02-26T02:15:21;8.80;99.90
20998;DHT22;10657;51.276;6.390;2024-02-26T02:17:48;8.80;99.90
20998;DHT22;10657;51.276;6.390;2024-02-26T02:20:16;8.90;99.90
20998;DHT22;10657;51.276;6.390;2024-02-26T02:22:45;8.90;99.90
20998;DHT22;10657;51.276;6.390;2024-02-26T02:25:12;8.90;99.90
20998;DHT22;10657;51.276;6.390;2024-02-26T02:27:40;8.60;99.90
20998;DHT22;10657;51.276;6.390;2024-02-26T02:30:07;8.90;99.90
20998;DHT22;10657;51.276;6.390;2024-02-26T02:32:37;8.90;99.90
20998;DHT22;10657;51.276;6.390;2024-02-26T02:35:04;8.70;99.90
20998;DHT22;10657;51.276;6.390;2024-02-26T02:37:31;8.80;99.90
20998;DHT22;10657;51.276;6.390;2024-02-26T02:39:58;8.70;99.90
20998;DHT22;10657;51.276;6.390;2024-02-26T02:42:24;8.80;99.90
20998;DHT22;10657;51.276;6.390;2024-02-26T02:44:51;8.80;99.90
20998;DHT22;10657;51.276;6.390;2024-02-26T02:47:18;9.10;99.90
20998;DHT22;10657;51.276;6.390;2024-02-26T02:49:45;8.90;99.90
20998;DHT22;10657;51.276;6.390;2024-02-26T02:52:12;9.00;99.90
20998;DHT22;10657;51.276;6.390;2024-02-26T02:54:38;8.90;99.90
20998;DHT22;10657;51.276;6.390;2024-02-26T02:57:08;8.90;99.90
20998;DHT22;10657;51.276;6.390;2024-02-26T02:59:37;9.00;99.90
20998;DHT22;10657;51.276;6.390;2024-02-26T03:02:03;8.70;99.90
20998;DHT22;10657;51.276;6.390;2024-02-26T03:04:31;8.70;99.90
20998;DHT22;10657;51.276;6.390;2024-02-26T03:06:58;8.70;99.90
20998;DHT22;10657;51.276;6.390;2024-02-26T03:09:25;8.70;99.90
20998;DHT22;10657;51.276;6.390;2024-02-26T03:11:52;8.90;99.90
20998;DHT22;10657;51.276;6.390;2024-02-26T03:14:19;8.90;99.90
20998;DHT22;10657;51.276;6.390;2024-02-26T03:16:45;8.70;99.90
20998;DHT22;10657;51.276;6.390;2024-02-26T03:19:15;8.80;99.90
20998;DHT22;10657;51.276;6.390;2024-02-26T03:21:43;8.80;99.90
20998;DHT22;10657;51.276;6.390;2024-02-26T03:24:09;9.00;99.90
20998;DHT22;10657;51.276;6.390;2024-02-26T03:26:37;9.10;99.90
20998;DHT22;10657;51.276;6.390;2024-02-26T03:29:04;9.00;99.90
20998;DHT22;10657;51.276;6.390;2024-02-26T03:31:31;8.70;99.90
20998;DHT22;10657;51.276;6.390;2024-02-26T03:33:58;8.60;99.90
20998;DHT22;10657;51.276;6.390;2024-02-26T03:36:25;8.80;99.90
20998;DHT22;10657;51.276;6.390;2024-02-26T03:38:52;8.80;99.90
20998;DHT22;10657;51.276;6.390;2024-02-26T03:41:19;9.00;99.90
20998;DHT22;10657;51.276;6.390;2024-02-26T03:43:45;8.70;99.90
20998;DHT22;10657;51.276;6.390;2024-02-26T03:46:12;8.70;99.90
20998;DHT22;10657;51.276;6.390;2024-02-26T03:48:43;8.80;99.90
20998;DHT22;10657;51.276;6.390;2024-02-26T03:51:10;8.70;99.90
20998;DHT22;10657;51.276;6.390;2024-02-26T03:53:37;8.90;99.90
20998;DHT22;10657;51.276;6.390;2024-02-26T03:56:05;8.90;99.90
20998;DHT22;10657;51.276;6.390;2024-02-26T03:58:32;8.90;99.90
20998;DHT22;10657;51.276;6.390;2024-02-26T04:01:00;8.90;99.90
20998;DHT22;10657;51.276;6.390;2024-02-26T04:03:26;9.00;99.90
20998;DHT22;10657;51.276;6.390;2024-02-26T04:05:53;9.00;99.90
20998;DHT22;10657;51.276;6.390;2024-02-26T04:08:20;8.80;99.90
20998;DHT22;10657;51.276;6.390;2024-02-26T04:10:46;8.90;99.90
20998;DHT22;10657;51.276;6.390;2024-02-26T04:13:13;9.00;99.90
20998;DHT22;10657;51.276;6.390;2024-02-26T04:15:41;9.00;99.90
20998;DHT22;10657;51.276;6.390;2024-02-26T04:18:07;9.00;99.90
20998;DHT22;10657;51.276;6.390;2024-02-26T04:20:35;8.70;99.90
20998;DHT22;10657;51.276;6.390;2024-02-26T04:23:03;8.90;99.90
20998;DHT22;10657;51.276;6.390;2024-02-26T04:25:29;8.80;99.90
20998;DHT22;10657;51.276;6.390;2024-02-26T04:27:56;8.80;99.90
20998;DHT22;10657;51.276;6.390;2024-02-26T04:30:23;8.70;99.90
20998;DHT22;10657;51.276;6.390;2024-02-26T04:32:50;8.70;99.90
20998;DHT22;10657;51.276;6.390;2024-02-26T04:35:17;8.80;99.90
20998;DHT22;10657;51.276;6.390;2024-02-26T04:37:43;8.70;99.90
20998;DHT22;10657;51.276;6.390;2024-02-26T04:40:10;8.70;99.90
20998;DHT22;10657;51.276;6.390;2024-02-26T04:42:37;8.80;99.90
20998;DHT22;10657;51.276;6.390;2024-02-26T04:45:04;8.60;99.90
20998;DHT22;10657;51.276;6.390;2024-02-26T04:47:31;8.50;99.90
20998;DHT22;10657;51.276;6.390;2024-02-26T04:49:58;8.70;99.90
20998;DHT22;10657;51.276;6.390;2024-02-26T04:52:25;8.90;99.90
20998;DHT22;10657;51.276;6.390;2024-02-26T04:54:52;8.90;99.90
20998;DHT22;10657;51.276;6.390;2024-02-26T04:57:18;8.60;99.90
20998;DHT22;10657;51.276;6.390;2024-02-26T04:59:45;8.70;99.90
20998;DHT22;10657;51.276;6.390;2024-02-26T05:02:13;8.50;99.90
20998;DHT22;10657;51.276;6.390;2024-02-26T05:04:40;8.60;99.90
20998;DHT22;10657;51.276;6.390;2024-02-26T05:07:07;8.80;99.90
20998;DHT22;10657;51.276;6.390;2024-02-26T05:09:34;8.70;99.90
20998;DHT22;10657;51.276;6.390;2024-02-26T05:12:01;8.50;99.90
20998;DHT22;10657;51.276;6.390;2024-02-26T05:14:28;8.70;99.90
20998;DHT22;10657;51.276;6.390;2024-02-26T05:16:55;8.60;99.90
20998;DHT22;10657;51.276;6.390;2024-02-26T05:19:22;8.50;99.90
20998;DHT22;10657;51.276;6.390;2024-02-26T05:21:49;8.60;99.90
20998;DHT22;10657;51.276;6.390;2024-02-26T05:24:16;8.70;99.90
20998;DHT22;10657;51.276;6.390;2024-02-26T05:26:45;8.70;99.90
20998;DHT22;10657;51.276;6.390;2024-02-26T05:29:12;8.50;99.90
20998;DHT22;10657;51.276;6.390;2024-02-26T05:31:39;8.40;99.90
20998;DHT22;10657;51.276;6.390;2024-02-26T05:34:08;8.60;99.90
20998;DHT22;10657;51.276;6.390;2024-02-26T05:36:35;8.70;99.90
20998;DHT22;10657;51.276;6.390;2024-02-26T05:39:01;8.80;99.90
20998;DHT22;10657;51.276;6.390;2024-02-26T05:41:30;8.60;99.90
20998;DHT22;10657;51.276;6.390;2024-02-26T05:43:57;8.60;99.90
20998;DHT22;10657;51.276;6.390;2024-02-26T05:46:24;8.70;99.90
20998;DHT22;10657;51.276;6.390;2024-02-26T05:48:52;8.60;99.90
20998;DHT22;10657;51.276;6.390;2024-02-26T05:51:19;8.50;99.90
20998;DHT22;10657;51.276;6.390;2024-02-26T05:53:46;8.50;99.90
20998;DHT22;10657;51.276;6.390;2024-02-26T05:56:14;8.30;99.90
20998;DHT22;10657;51.276;6.390;2024-02-26T05:58:41;8.30;99.90
20998;DHT22;10657;51.276;6.390;2024-02-26T06:01:07;8.40;99.90
20998;DHT22;10657;51.276;6.390;2024-02-26T06:03:34;8.40;99.90
20998;DHT22;10657;51.276;6.390;2024-02-26T06:06:01;8.20;99.90
20998;DHT22;10657;51.276;6.390;2024-02-26T06:08:28;8.30;99.90
20998;DHT22;10657;51.276;6.390;2024-02-26T06:10:55;8.10;99.90
20998;DHT22;10657;51.276;6.390;2024-02-26T06:13:22;8.10;99.90
20998;DHT22;10657;51.276;6.390;2024-02-26T06:15:48;8.10;99.90
20998;DHT22;10657;51.276;6.390;2024-02-26T06:18:15;8.20;99.90
20998;DHT22;10657;51.276;6.390;2024-02-26T06:20:42;8.30;99.90
20998;DHT22;10657;51.276;6.390;2024-02-26T06:23:09;8.50;99.90
20998;DHT22;10657;51.276;6.390;2024-02-26T06:25:36;8.60;99.90
20998;DHT22;10657;51.276;6.390;2024-02-26T06:28:03;8.50;99.90
20998;DHT22;10657;51.276;6.390;2024-02-26T06:30:30;8.30;99.90
20998;DHT22;10657;51.276;6.390;2024-02-26T06:32:56;8.20;99.90
20998;DHT22;10657;51.276;6.390;2024-02-26T06:35:23;8.20;99.90
20998;DHT22;10657;51.276;6.390;2024-02-26T06:37:50;8.20;99.90
20998;DHT22;10657;51.276;6.390;2024-02-26T06:40:19;8.00;99.90
20998;DHT22;10657;51.276;6.390;2024-02-26T06:42:46;7.80;99.90
20998;DHT22;10657;51.276;6.390;2024-02-26T06:45:15;8.10;99.90
20998;DHT22;10657;51.276;6.390;2024-02-26T06:47:42;8.20;99.90
20998;DHT22;10657;51.276;6.390;2024-02-26T06:50:12;8.20;99.90
20998;DHT22;10657;51.276;6.390;2024-02-26T06:52:39;8.10;99.90
20998;DHT22;10657;51.276;6.390;2024-02-26T06:55:06;8.00;99.90
20998;DHT22;10657;51.276;6.390;2024-02-26T06:57:35;8.10;99.90
20998;DHT22;10657;51.276;6.390;2024-02-26T07:00:01;8.40;99.90
20998;DHT22;10657;51.276;6.390;2024-02-26T07:02:31;8.40;99.90
20998;DHT22;10657;51.276;6.390;2024-02-26T07:04:57;8.40;99.90
20998;DHT22;10657;51.276;6.390;2024-02-26T07:07:25;8.40;99.90
20998;DHT22;10657;51.276;6.390;2024-02-26T07:09:52;8.40;99.90
20998;DHT22;10657;51.276;6.390;2024-02-26T07:12:19;8.30;99.90
20998;DHT22;10657;51.276;6.390;2024-02-26T07:14:48;8.30;99.90
20998;DHT22;10657;51.276;6.390;2024-02-26T07:17:16;8.40;99.90
20998;DHT22;10657;51.276;6.390;2024-02-26T07:19:42;8.20;99.90
20998;DHT22;10657;51.276;6.390;2024-02-26T07:22:09;8.30;99.90
20998;DHT22;10657;51.276;6.390;2024-02-26T07:24:36;8.30;99.90
20998;DHT22;10657;51.276;6.390;2024-02-26T07:27:03;8.20;99.90
20998;DHT22;10657;51.276;6.390;2024-02-26T07:29:30;8.10;99.90
20998;DHT22;10657;51.276;6.390;2024-02-26T07:31:57;8.30;99.90
20998;DHT22;10657;51.276;6.390;2024-02-26T07:34:24;8.40;99.90
20998;DHT22;10657;51.276;6.390;2024-02-26T07:36:56;8.20;99.90
20998;DHT22;10657;51.276;6.390;2024-02-26T07:39:23;8.00;99.90
20998;DHT22;10657;51.276;6.390;2024-02-26T07:41:49;8.10;99.90
20998;DHT22;10657;51.276;6.390;2024-02-26T07:44:19;8.20;99.90
20998;DHT22;10657;51.276;6.390;2024-02-26T07:46:46;8.30;99.90
20998;DHT22;10657;51.276;6.390;2024-02-26T07:49:13;8.40;99.90
20998;DHT22;10657;51.276;6.390;2024-02-26T07:51:40;8.30;99.90
20998;DHT22;10657;51.276;6.390;2024-02-26T07:54:07;8.20;99.90
20998;DHT22;10657;51.276;6.390;2024-02-26T07:56:34;8.10;99.90
20998;DHT22;10657;51.276;6.390;2024-02-26T07:59:01;8.10;99.90
20998;DHT22;10657;51.276;6.390;2024-02-26T08:01:28;8.10;99.90
20998;DHT22;10657;51.276;6.390;2024-02-26T08:03:54;8.30;99.90
20998;DHT22;10657;51.276;6.390;2024-02-26T08:06:23;8.50;99.90
20998;DHT22;10657;51.276;6.390;2024-02-26T08:08:50;8.50;99.90
20998;DHT22;10657;51.276;6.390;2024-02-26T08:11:17;8.20;99.90
20998;DHT22;10657;51.276;6.390;2024-02-26T08:13:44;8.20;99.90
20998;DHT22;10657;51.276;6.390;2024-02-26T08:16:10;8.10;99.90
20998;DHT22;10657;51.276;6.390;2024-02-26T08:18:38;8.10;99.90
20998;DHT22;10657;51.276;6.390;2024-02-26T08:21:05;8.30;99.90
20998;DHT22;10657;51.276;6.390;2024-02-26T08:23:32;8.30;99.90
20998;DHT22;10657;51.276;6.390;2024-02-26T08:25:58;8.00;99.90
20998;DHT22;10657;51.276;6.390;2024-02-26T08:28:25;8.00;99.90
20998;DHT22;10657;51.276;6.390;2024-02-26T08:30:52;8.10;99.90
20998;DHT22;10657;51.276;6.390;2024-02-26T08:33:18;8.20;99.90
20998;DHT22;10657;51.276;6.390;2024-02-26T08:35:46;8.30;99.90
20998;DHT22;10657;51.276;6.390;2024-02-26T08:38:12;8.40;99.90
20998;DHT22;10657;51.276;6.390;2024-02-26T08:40:39;8.60;99.90
20998;DHT22;10657;51.276;6.390;2024-02-26T08:43:06;8.50;99.90
20998;DHT22;10657;51.276;6.390;2024-02-26T08:45:32;8.40;99.90
20998;DHT22;10657;51.276;6.390;2024-02-26T08:47:59;8.50;99.90
20998;DHT22;10657;51.276;6.390;2024-02-26T08:50:26;8.50;99.90
20998;DHT22;10657;51.276;6.390;2024-02-26T08:52:53;8.30;99.90
20998;DHT22;10657;51.276;6.390;2024-02-26T08:55:20;8.20;99.90
20998;DHT22;10657;51.276;6.390;2024-02-26T08:57:47;8.20;99.90
20998;DHT22;10657;51.276;6.390;2024-02-26T09:00:14;8.40;99.90
20998;DHT22;10657;51.276;6.390;2024-02-26T09:02:42;8.40;99.90
20998;DHT22;10657;51.276;6.390;2024-02-26T09:05:10;8.70;99.90
20998;DHT22;10657;51.276;6.390;2024-02-26T09:07:37;8.60;99.90
20998;DHT22;10657;51.276;6.390;2024-02-26T09:10:05;8.40;99.90
20998;DHT22;10657;51.276;6.390;2024-02-26T09:12:32;8.40;99.90
20998;DHT22;10657;51.276;6.390;2024-02-26T09:14:58;8.50;99.90
20998;DHT22;10657;51.276;6.390;2024-02-26T09:17:25;8.50;99.90
20998;DHT22;10657;51.276;6.390;2024-02-26T09:19:52;8.40;99.90
20998;DHT22;10657;51.276;6.390;2024-02-26T09:22:19;8.50;99.90
20998;DHT22;10657;51.276;6.390;2024-02-26T09:24:45;8.60;99.90
20998;DHT22;10657;51.276;6.390;2024-02-26T09:27:12;8.50;99.90
20998;DHT22;10657;51.276;6.390;2024-02-26T09:29:39;8.60;99.90
20998;DHT22;10657;51.276;6.390;2024-02-26T09:32:06;8.30;99.90
20998;DHT22;10657;51.276;6.390;2024-02-26T09:34:32;8.40;99.90
20998;DHT22;10657;51.276;6.390;2024-02-26T09:37:00;8.40;99.90
20998;DHT22;10657;51.276;6.390;2024-02-26T09:39:41;8.40;99.90
20998;DHT22;10657;51.276;6.390;2024-02-26T09:42:09;8.40;99.90
20998;DHT22;10657;51.276;6.390;2024-02-26T09:44:40;8.50;99.90
20998;DHT22;10657;51.276;6.390;2024-02-26T09:47:11;8.40;99.90
20998;DHT22;10657;51.276;6.390;2024-02-26T09:49:38;8.50;99.90
20998;DHT22;10657;51.276;6.390;2024-02-26T09:52:06;8.50;99.90
20998;DHT22;10657;51.276;6.390;2024-02-26T09:54:35;8.30;99.90
20998;DHT22;10657;51.276;6.390;2024-02-26T09:57:03;8.40;99.90
20998;DHT22;10657;51.276;6.390;2024-02-26T09:59:39;8.50;99.90
20998;DHT22;10657;51.276;6.390;2024-02-26T10:02:12;8.40;99.90
20998;DHT22;10657;51.276;6.390;2024-02-26T10:04:40;8.50;99.90
20998;DHT22;10657;51.276;6.390;2024-02-26T10:07:12;8.50;99.90
20998;DHT22;10657;51.276;6.390;2024-02-26T10:09:40;8.60;99.90
20998;DHT22;10657;51.276;6.390;2024-02-26T10:12:10;8.60;99.90
20998;DHT22;10657;51.276;6.390;2024-02-26T10:14:38;8.30;99.90
20998;DHT22;10657;51.276;6.390;2024-02-26T10:17:07;8.30;99.90
20998;DHT22;10657;51.276;6.390;2024-02-26T10:19:35;8.50;99.90
20998;DHT22;10657;51.276;6.390;2024-02-26T10:22:05;8.60;99.90
20998;DHT22;10657;51.276;6.390;2024-02-26T10:24:32;8.60;99.90
20998;DHT22;10657;51.276;6.390;2024-02-26T10:27:02;8.50;99.90
20998;DHT22;10657;51.276;6.390;2024-02-26T10:29:29;8.60;99.90
20998;DHT22;10657;51.276;6.390;2024-02-26T10:31:56;8.50;99.90
20998;DHT22;10657;51.276;6.390;2024-02-26T10:34:23;8.20;99.90
20998;DHT22;10657;51.276;6.390;2024-02-26T10:36:50;8.20;99.90
20998;DHT22;10657;51.276;6.390;2024-02-26T10:39:20;8.50;99.90
20998;DHT22;10657;51.276;6.390;2024-02-26T10:41:48;8.40;99.90
20998;DHT22;10657;51.276;6.390;2024-02-26T10:44:14;8.40;99.90
20998;DHT22;10657;51.276;6.390;2024-02-26T10:46:46;8.70;99.90
20998;DHT22;10657;51.276;6.390;2024-02-26T10:49:14;8.90;99.90
20998;DHT22;10657;51.276;6.390;2024-02-26T10:51:47;8.70;99.90
20998;DHT22;10657;51.276;6.390;2024-02-26T10:54:16;8.70;99.90
20998;DHT22;10657;51.276;6.390;2024-02-26T10:56:43;8.80;99.90
20998;DHT22;10657;51.276;6.390;2024-02-26T10:59:12;8.80;99.90
20998;DHT22;10657;51.276;6.390;2024-02-26T11:01:39;8.90;99.90
20998;DHT22;10657;51.276;6.390;2024-02-26T11:04:08;9.00;99.90
20998;DHT22;10657;51.276;6.390;2024-02-26T11:06:37;9.30;99.90
20998;DHT22;10657;51.276;6.390;2024-02-26T11:09:04;9.20;99.90
20998;DHT22;10657;51.276;6.390;2024-02-26T11:11:33;9.30;99.90
20998;DHT22;10657;51.276;6.390;2024-02-26T11:14:03;9.00;99.90
20998;DHT22;10657;51.276;6.390;2024-02-26T11:16:31;9.10;99.90
20998;DHT22;10657;51.276;6.390;2024-02-26T11:18:59;9.20;99.90
20998;DHT22;10657;51.276;6.390;2024-02-26T11:21:27;9.00;99.90
20998;DHT22;10657;51.276;6.390;2024-02-26T11:23:57;8.70;99.90
20998;DHT22;10657;51.276;6.390;2024-02-26T11:26:26;8.90;99.90
20998;DHT22;10657;51.276;6.390;2024-02-26T11:28:53;8.80;99.90
20998;DHT22;10657;51.276;6.390;2024-02-26T11:31:20;8.50;99.90
20998;DHT22;10657;51.276;6.390;2024-02-26T11:33:54;8.70;99.90
20998;DHT22;10657;51.276;6.390;2024-02-26T11:36:23;8.80;99.90
20998;DHT22;10657;51.276;6.390;2024-02-26T11:38:50;8.30;99.90
20998;DHT22;10657;51.276;6.390;2024-02-26T11:41:18;8.50;99.90
20998;DHT22;10657;51.276;6.390;2024-02-26T11:44:00;8.60;99.90
20998;DHT22;10657;51.276;6.390;2024-02-26T11:46:28;8.70;99.90
20998;DHT22;10657;51.276;6.390;2024-02-26T11:49:02;8.60;99.90
20998;DHT22;10657;51.276;6.390;2024-02-26T11:51:34;8.60;99.90
20998;DHT22;10657;51.276;6.390;2024-02-26T11:54:01;9.00;99.90
20998;DHT22;10657;51.276;6.390;2024-02-26T11:56:28;9.20;99.90
20998;DHT22;10657;51.276;6.390;2024-02-26T11:59:38;9.10;99.90
20998;DHT22;10657;51.276;6.390;2024-02-26T12:01:49;8.90;99.90
20998;DHT22;10657;51.276;6.390;2024-02-26T12:04:17;9.40;99.90
20998;DHT22;10657;51.276;6.390;2024-02-26T12:07:11;9.10;99.90
20998;DHT22;10657;51.276;6.390;2024-02-26T12:09:42;9.30;99.90
20998;DHT22;10657;51.276;6.390;2024-02-26T12:12:12;9.10;99.90
20998;DHT22;10657;51.276;6.390;2024-02-26T12:14:50;9.50;99.90
20998;DHT22;10657;51.276;6.390;2024-02-26T12:17:22;9.60;99.90
20998;DHT22;10657;51.276;6.390;2024-02-26T12:19:50;9.10;99.90
20998;DHT22;10657;51.276;6.390;2024-02-26T12:22:19;8.90;99.90
20998;DHT22;10657;51.276;6.390;2024-02-26T12:24:45;9.20;99.90
20998;DHT22;10657;51.276;6.390;2024-02-26T12:27:12;9.20;99.90
20998;DHT22;10657;51.276;6.390;2024-02-26T12:29:39;9.10;99.90
20998;DHT22;10657;51.276;6.390;2024-02-26T12:32:06;9.30;99.90
20998;DHT22;10657;51.276;6.390;2024-02-26T12:34:34;9.10;99.90
20998;DHT22;10657;51.276;6.390;2024-02-26T12:37:01;9.30;99.90
20998;DHT22;10657;51.276;6.390;2024-02-26T12:39:28;9.50;99.90
20998;DHT22;10657;51.276;6.390;2024-02-26T12:41:57;9.30;99.90
20998;DHT22;10657;51.276;6.390;2024-02-26T12:44:26;9.20;99.90
20998;DHT22;10657;51.276;6.390;2024-02-26T12:47:00;9.20;99.90
20998;DHT22;10657;51.276;6.390;2024-02-26T12:49:29;9.00;99.90
20998;DHT22;10657;51.276;6.390;2024-02-26T12:51:56;8.60;99.90
20998;DHT22;10657;51.276;6.390;2024-02-26T12:54:31;8.30;99.90
20998;DHT22;10657;51.276;6.390;2024-02-26T12:57:00;8.60;99.90
20998;DHT22;10657;51.276;6.390;2024-02-26T12:59:29;8.60;99.90
20998;DHT22;10657;51.276;6.390;2024-02-26T13:01:57;8.50;99.90
20998;DHT22;10657;51.276;6.390;2024-02-26T13:04:24;8.50;99.90
20998;DHT22;10657;51.276;6.390;2024-02-26T13:06:51;8.20;99.90
20998;DHT22;10657;51.276;6.390;2024-02-26T13:09:18;7.90;99.90
20998;DHT22;10657;51.276;6.390;2024-02-26T13:11:45;8.10;99.90
20998;DHT22;10657;51.276;6.390;2024-02-26T13:14:20;8.30;99.90
20998;DHT22;10657;51.276;6.390;2024-02-26T13:17:05;7.70;99.90
20998;DHT22;10657;51.276;6.390;2024-02-26T13:19:32;7.90;99.90
20998;DHT22;10657;51.276;6.390;2024-02-26T13:22:06;8.00;99.90
20998;DHT22;10657;51.276;6.390;2024-02-26T13:24:34;7.90;99.90
20998;DHT22;10657;51.276;6.390;2024-02-26T13:27:02;8.10;99.90
20998;DHT22;10657;51.276;6.390;2024-02-26T13:29:31;8.30;99.90
20998;DHT22;10657;51.276;6.390;2024-02-26T13:31:58;8.50;99.90
20998;DHT22;10657;51.276;6.390;2024-02-26T13:34:29;8.90;99.90
20998;DHT22;10657;51.276;6.390;2024-02-26T13:36:57;9.00;99.90
20998;DHT22;10657;51.276;6.390;2024-02-26T13:39:25;8.90;99.90
20998;DHT22;10657;51.276;6.390;2024-02-26T13:41:52;8.70;99.90
20998;DHT22;10657;51.276;6.390;2024-02-26T13:44:20;8.70;99.90
20998;DHT22;10657;51.276;6.390;2024-02-26T13:46:47;8.50;99.90
20998;DHT22;10657;51.276;6.390;2024-02-26T13:49:15;8.50;99.90
20998;DHT22;10657;51.276;6.390;2024-02-26T13:51:43;8.90;99.90
20998;DHT22;10657;51.276;6.390;2024-02-26T13:54:09;8.60;99.90
20998;DHT22;10657;51.276;6.390;2024-02-26T13:56:37;8.40;99.90
20998;DHT22;10657;51.276;6.390;2024-02-26T13:59:04;8.40;99.90
20998;DHT22;10657;51.276;6.390;2024-02-26T14:01:31;8.10;99.90
20998;DHT22;10657;51.276;6.390;2024-02-26T14:04:00;8.00;99.90
20998;DHT22;10657;51.276;6.390;2024-02-26T14:06:29;8.10;99.90
20998;DHT22;10657;51.276;6.390;2024-02-26T14:08:57;8.20;99.90
20998;DHT22;10657;51.276;6.390;2024-02-26T14:11:24;8.10;99.90
20998;DHT22;10657;51.276;6.390;2024-02-26T14:13:51;8.10;99.90
20998;DHT22;10657;51.276;6.390;2024-02-26T14:16:18;8.00;99.90
20998;DHT22;10657;51.276;6.390;2024-02-26T14:18:46;8.00;99.90
20998;DHT22;10657;51.276;6.390;2024-02-26T14:21:13;8.00;99.90
20998;DHT22;10657;51.276;6.390;2024-02-26T14:23:40;7.90;99.90
20998;DHT22;10657;51.276;6.390;2024-02-26T14:26:09;8.00;99.90
20998;DHT22;10657;51.276;6.390;2024-02-26T14:28:36;8.10;99.90
20998;DHT22;10657;51.276;6.390;2024-02-26T14:31:05;8.00;99.90
20998;DHT22;10657;51.276;6.390;2024-02-26T14:33:32;8.10;99.90
20998;DHT22;10657;51.276;6.390;2024-02-26T14:35:59;8.10;99.90
20998;DHT22;10657;51.276;6.390;2024-02-26T14:38:26;8.20;99.90
20998;DHT22;10657;51.276;6.390;2024-02-26T14:40:52;8.20;99.90
20998;DHT22;10657;51.276;6.390;2024-02-26T14:43:19;8.20;99.90
20998;DHT22;10657;51.276;6.390;2024-02-26T14:45:46;8.20;99.90
20998;DHT22;10657;51.276;6.390;2024-02-26T14:48:12;8.30;99.90
20998;DHT22;10657;51.276;6.390;2024-02-26T14:50:39;8.30;99.90
20998;DHT22;10657;51.276;6.390;2024-02-26T14:53:06;8.50;99.90
20998;DHT22;10657;51.276;6.390;2024-02-26T14:55:33;8.40;99.90
20998;DHT22;10657;51.276;6.390;2024-02-26T14:58:00;8.30;99.90
20998;DHT22;10657;51.276;6.390;2024-02-26T15:00:27;8.30;99.90
20998;DHT22;10657;51.276;6.390;2024-02-26T15:02:54;8.40;99.90
20998;DHT22;10657;51.276;6.390;2024-02-26T15:05:21;8.40;99.90
20998;DHT22;10657;51.276;6.390;2024-02-26T15:07:48;8.30;99.90
20998;DHT22;10657;51.276;6.390;2024-02-26T15:10:15;8.30;99.90
20998;DHT22;10657;51.276;6.390;2024-02-26T15:12:42;8.10;99.90
20998;DHT22;10657;51.276;6.390;2024-02-26T15:15:10;7.90;99.90
20998;DHT22;10657;51.276;6.390;2024-02-26T15:17:37;8.30;99.90
20998;DHT22;10657;51.276;6.390;2024-02-26T15:20:04;8.30;99.90
20998;DHT22;10657;51.276;6.390;2024-02-26T15:22:34;8.50;99.90
20998;DHT22;10657;51.276;6.390;2024-02-26T15:25:01;8.60;99.90
20998;DHT22;10657;51.276;6.390;2024-02-26T15:27:27;8.70;99.90
20998;DHT22;10657;51.276;6.390;2024-02-26T15:29:54;8.20;99.90
20998;DHT22;10657;51.276;6.390;2024-02-26T15:32:25;8.20;99.90
20998;DHT22;10657;51.276;6.390;2024-02-26T15:34:54;8.40;99.90
20998;DHT22;10657;51.276;6.390;2024-02-26T15:37:21;8.20;99.90
20998;DHT22;10657;51.276;6.390;2024-02-26T15:39:48;8.10;99.90
20998;DHT22;10657;51.276;6.390;2024-02-26T15:42:15;7.90;99.90
20998;DHT22;10657;51.276;6.390;2024-02-26T15:44:41;8.20;99.90
20998;DHT22;10657;51.276;6.390;2024-02-26T15:47:08;8.20;99.90